sensor_id;sensor_type;location;lat;lon;timestamp;pressure;altitude;pressure_sealevel;temperature;humidity
64211;BME280;50528;48.514;14.394;2023-02-28T00:00:04;94473.96;;;-2.43;68.18
64211;BME280;50528;48.514;14.394;2023-02-28T00:01:08;94471.77;;;-2.48;68.45
64211;BME280;50528;48.514;14.394;2023-02-28T00:01:44;94470.05;;;-2.49;68.54
64211;BME280;50528;48.514;14.394;2023-02-28T00:02:18;94470.11;;;-2.48;68.38
64211;BME280;50528;48.514;14.394;2023-02-28T00:02:53;94469.11;;;-2.49;68.43
64211;BME280;50528;48.514;14.394;2023-02-28T00:03:27;94470.92;;;-2.46;68.47
64211;BME280;50528;48.514;14.394;2023-02-28T00:04:01;94470.55;;;-2.44;68.30
64211;BME280;50528;48.514;14.394;2023-02-28T00:04:36;94468.80;;;-2.42;68.40
64211;BME280;50528;48.514;14.394;2023-02-28T00:05:13;94469.74;;;-2.38;68.48
64211;BME280;50528;48.514;14.394;2023-02-28T00:05:48;94467.31;;;-2.34;68.31
64211;BME280;50528;48.514;14.394;2023-02-28T00:06:22;94470.86;;;-2.33;68.25
64211;BME280;50528;48.514;14.394;2023-02-28T00:06:55;94467.48;;;-2.32;68.25
64211;BME280;50528;48.514;14.394;2023-02-28T00:07:30;94465.44;;;-2.29;68.25
64211;BME280;50528;48.514;14.394;2023-02-28T00:08:04;94465.53;;;-2.23;68.09
64211;BME280;50528;48.514;14.394;2023-02-28T00:08:38;94464.09;;;-2.22;68.02
64211;BME280;50528;48.514;14.394;2023-02-28T00:09:12;94450.45;;;-2.30;67.90
64211;BME280;50528;48.514;14.394;2023-02-28T00:09:47;94462.20;;;-2.24;67.88
64211;BME280;50528;48.514;14.394;2023-02-28T00:10:25;94463.64;;;-2.23;67.95
64211;BME280;50528;48.514;14.394;2023-02-28T00:11:02;94459.64;;;-2.23;67.96
64211;BME280;50528;48.514;14.394;2023-02-28T00:11:36;94457.29;;;-2.25;67.90
64211;BME280;50528;48.514;14.394;2023-02-28T00:12:12;94458.79;;;-2.28;67.99
64211;BME280;50528;48.514;14.394;2023-02-28T00:12:50;94461.04;;;-2.28;68.08
64211;BME280;50528;48.514;14.394;2023-02-28T00:13:24;94458.36;;;-2.29;67.95
64211;BME280;50528;48.514;14.394;2023-02-28T00:13:59;94457.92;;;-2.28;67.93
64211;BME280;50528;48.514;14.394;2023-02-28T00:14:33;94458.31;;;-2.26;67.84
64211;BME280;50528;48.514;14.394;2023-02-28T00:15:09;94459.24;;;-2.27;67.71
64211;BME280;50528;48.514;14.394;2023-02-28T00:15:44;94462.34;;;-2.34;67.91
64211;BME280;50528;48.514;14.394;2023-02-28T00:16:21;94460.63;;;-2.39;68.07
64211;BME280;50528;48.514;14.394;2023-02-28T00:16:55;94458.20;;;-2.34;67.97
64211;BME280;50528;48.514;14.394;2023-02-28T00:17:29;94456.44;;;-2.35;67.84
64211;BME280;50528;48.514;14.394;2023-02-28T00:18:03;94457.40;;;-2.39;67.94
64211;BME280;50528;48.514;14.394;2023-02-28T00:18:39;94459.42;;;-2.43;68.15
64211;BME280;50528;48.514;14.394;2023-02-28T00:19:14;94456.32;;;-2.39;67.98
64211;BME280;50528;48.514;14.394;2023-02-28T00:19:49;94457.92;;;-2.41;68.07
64211;BME280;50528;48.514;14.394;2023-02-28T00:20:24;94454.39;;;-2.40;67.92
64211;BME280;50528;48.514;14.394;2023-02-28T00:20:59;94457.45;;;-2.40;68.02
64211;BME280;50528;48.514;14.394;2023-02-28T00:21:34;94458.17;;;-2.45;68.06
64211;BME280;50528;48.514;14.394;2023-02-28T00:22:09;94455.83;;;-2.39;68.00
64211;BME280;50528;48.514;14.394;2023-02-28T00:22:46;94454.98;;;-2.36;67.84
64211;BME280;50528;48.514;14.394;2023-02-28T00:23:21;94459.36;;;-2.40;67.96
64211;BME280;50528;48.514;14.394;2023-02-28T00:23:55;94455.39;;;-2.40;68.07
64211;BME280;50528;48.514;14.394;2023-02-28T00:24:30;94454.59;;;-2.37;67.70
64211;BME280;50528;48.514;14.394;2023-02-28T00:25:04;94449.23;;;-2.45;67.77
64211;BME280;50528;48.514;14.394;2023-02-28T00:25:40;94454.66;;;-2.38;67.73
64211;BME280;50528;48.514;14.394;2023-02-28T00:26:14;94457.34;;;-2.42;67.82
64211;BME280;50528;48.514;14.394;2023-02-28T00:26:50;94458.35;;;-2.44;67.95
64211;BME280;50528;48.514;14.394;2023-02-28T00:27:24;94456.21;;;-2.41;67.96
64211;BME280;50528;48.514;14.394;2023-02-28T00:27:59;94451.80;;;-2.42;67.79
64211;BME280;50528;48.514;14.394;2023-02-28T00:28:33;94450.41;;;-2.47;67.80
64211;BME280;50528;48.514;14.394;2023-02-28T00:29:07;94450.33;;;-2.48;67.92
64211;BME280;50528;48.514;14.394;2023-02-28T00:29:42;94452.78;;;-2.46;67.93
64211;BME280;50528;48.514;14.394;2023-02-28T00:30:21;94451.09;;;-2.43;67.83
64211;BME280;50528;48.514;14.394;2023-02-28T00:30:55;94450.36;;;-2.46;67.85
64211;BME280;50528;48.514;14.394;2023-02-28T00:31:31;94448.91;;;-2.47;67.88
64211;BME280;50528;48.514;14.394;2023-02-28T00:32:06;94446.88;;;-2.42;67.73
64211;BME280;50528;48.514;14.394;2023-02-28T00:32:41;94452.68;;;-2.45;67.66
64211;BME280;50528;48.514;14.394;2023-02-28T00:33:15;94455.36;;;-2.50;67.87
64211;BME280;50528;48.514;14.394;2023-02-28T00:33:49;94449.56;;;-2.50;67.99
64211;BME280;50528;48.514;14.394;2023-02-28T00:34:27;94442.34;;;-2.55;67.97
64211;BME280;50528;48.514;14.394;2023-02-28T00:35:02;94449.38;;;-2.50;67.94
64211;BME280;50528;48.514;14.394;2023-02-28T00:35:37;94449.10;;;-2.54;68.31
64211;BME280;50528;48.514;14.394;2023-02-28T00:36:14;94448.46;;;-2.57;68.46
64211;BME280;50528;48.514;14.394;2023-02-28T00:36:49;94445.89;;;-2.60;68.56
64211;BME280;50528;48.514;14.394;2023-02-28T00:37:23;94447.80;;;-2.57;68.44
64211;BME280;50528;48.514;14.394;2023-02-28T00:37:57;94445.40;;;-2.60;68.46
64211;BME280;50528;48.514;14.394;2023-02-28T00:38:33;94440.39;;;-2.60;68.53
64211;BME280;50528;48.514;14.394;2023-02-28T00:39:07;94443.38;;;-2.52;68.27
64211;BME280;50528;48.514;14.394;2023-02-28T00:39:42;94445.21;;;-2.52;68.25
64211;BME280;50528;48.514;14.394;2023-02-28T00:40:16;94443.08;;;-2.56;68.16
64211;BME280;50528;48.514;14.394;2023-02-28T00:40:50;94444.63;;;-2.58;68.27
64211;BME280;50528;48.514;14.394;2023-02-28T00:41:25;94443.28;;;-2.54;68.14
64211;BME280;50528;48.514;14.394;2023-02-28T00:42:00;94442.77;;;-2.51;68.17
64211;BME280;50528;48.514;14.394;2023-02-28T00:42:35;94441.95;;;-2.55;68.16
64211;BME280;50528;48.514;14.394;2023-02-28T00:43:09;94440.90;;;-2.48;68.12
64211;BME280;50528;48.514;14.394;2023-02-28T00:43:43;94440.91;;;-2.51;67.89
64211;BME280;50528;48.514;14.394;2023-02-28T00:44:17;94444.73;;;-2.54;67.91
64211;BME280;50528;48.514;14.394;2023-02-28T00:44:52;94441.38;;;-2.53;67.77
64211;BME280;50528;48.514;14.394;2023-02-28T00:46:01;94444.29;;;-2.64;68.20
64211;BME280;50528;48.514;14.394;2023-02-28T00:46:39;94446.88;;;-2.61;67.98
64211;BME280;50528;48.514;14.394;2023-02-28T00:47:13;94443.01;;;-2.62;67.90
64211;BME280;50528;48.514;14.394;2023-02-28T00:47:47;94444.67;;;-2.58;67.82
64211;BME280;50528;48.514;14.394;2023-02-28T00:48:24;94442.02;;;-2.61;67.84
64211;BME280;50528;48.514;14.394;2023-02-28T00:48:58;94438.91;;;-2.59;67.74
64211;BME280;50528;48.514;14.394;2023-02-28T00:49:32;94440.20;;;-2.53;67.60
64211;BME280;50528;48.514;14.394;2023-02-28T00:50:09;94441.09;;;-2.60;67.64
64211;BME280;50528;48.514;14.394;2023-02-28T00:50:42;94440.35;;;-2.58;67.59
64211;BME280;50528;48.514;14.394;2023-02-28T00:51:19;94440.84;;;-2.58;67.66
64211;BME280;50528;48.514;14.394;2023-02-28T00:51:54;94439.61;;;-2.57;67.62
64211;BME280;50528;48.514;14.394;2023-02-28T00:52:29;94442.79;;;-2.60;67.65
64211;BME280;50528;48.514;14.394;2023-02-28T00:53:03;94440.04;;;-2.66;67.81
64211;BME280;50528;48.514;14.394;2023-02-28T00:53:37;94439.65;;;-2.64;67.99
64211;BME280;50528;48.514;14.394;2023-02-28T00:54:12;94442.55;;;-2.64;67.83
64211;BME280;50528;48.514;14.394;2023-02-28T00:54:50;94436.08;;;-2.66;68.03
64211;BME280;50528;48.514;14.394;2023-02-28T00:55:24;94437.30;;;-2.68;67.86
64211;BME280;50528;48.514;14.394;2023-02-28T00:55:59;94439.98;;;-2.66;67.91
64211;BME280;50528;48.514;14.394;2023-02-28T00:56:33;94438.91;;;-2.64;67.80
64211;BME280;50528;48.514;14.394;2023-02-28T00:57:07;94441.55;;;-2.69;67.84
64211;BME280;50528;48.514;14.394;2023-02-28T00:57:41;94438.65;;;-2.70;67.99
64211;BME280;50528;48.514;14.394;2023-02-28T00:58:15;94436.54;;;-2.76;68.11
64211;BME280;50528;48.514;14.394;2023-02-28T00:58:50;94434.25;;;-2.79;68.27
64211;BME280;50528;48.514;14.394;2023-02-28T00:59:25;94435.58;;;-2.78;68.08
64211;BME280;50528;48.514;14.394;2023-02-28T01:00:08;94440.27;;;-2.84;68.32
64211;BME280;50528;48.514;14.394;2023-02-28T01:00:45;94433.56;;;-2.82;68.28
64211;BME280;50528;48.514;14.394;2023-02-28T01:01:25;94435.00;;;-2.81;68.32
64211;BME280;50528;48.514;14.394;2023-02-28T01:02:03;94434.16;;;-2.87;68.47
64211;BME280;50528;48.514;14.394;2023-02-28T01:02:40;94435.16;;;-2.86;68.34
64211;BME280;50528;48.514;14.394;2023-02-28T01:03:21;94430.27;;;-2.82;68.33
64211;BME280;50528;48.514;14.394;2023-02-28T01:03:58;94434.50;;;-2.80;68.31
64211;BME280;50528;48.514;14.394;2023-02-28T01:04:33;94425.44;;;-2.80;68.13
64211;BME280;50528;48.514;14.394;2023-02-28T01:05:09;94429.68;;;-2.79;68.07
64211;BME280;50528;48.514;14.394;2023-02-28T01:05:46;94427.36;;;-2.85;68.25
64211;BME280;50528;48.514;14.394;2023-02-28T01:06:23;94430.38;;;-2.90;68.42
64211;BME280;50528;48.514;14.394;2023-02-28T01:06:59;94428.37;;;-2.89;68.25
64211;BME280;50528;48.514;14.394;2023-02-28T01:07:35;94425.02;;;-2.88;68.22
64211;BME280;50528;48.514;14.394;2023-02-28T01:08:09;94427.94;;;-2.86;68.24
64211;BME280;50528;48.514;14.394;2023-02-28T01:08:44;94427.38;;;-2.87;68.36
64211;BME280;50528;48.514;14.394;2023-02-28T01:09:20;94424.20;;;-2.92;68.49
64211;BME280;50528;48.514;14.394;2023-02-28T01:09:57;94424.13;;;-2.89;68.31
64211;BME280;50528;48.514;14.394;2023-02-28T01:10:34;94426.89;;;-2.93;68.21
64211;BME280;50528;48.514;14.394;2023-02-28T01:11:52;94425.98;;;-2.96;68.35
64211;BME280;50528;48.514;14.394;2023-02-28T01:13:22;94426.73;;;-3.02;68.58
64211;BME280;50528;48.514;14.394;2023-02-28T01:14:55;94422.87;;;-3.11;68.82
64211;BME280;50528;48.514;14.394;2023-02-28T01:16:27;94418.61;;;-3.20;68.90
64211;BME280;50528;48.514;14.394;2023-02-28T01:17:59;94417.66;;;-3.26;68.93
64211;BME280;50528;48.514;14.394;2023-02-28T01:19:30;94425.77;;;-3.25;69.02
64211;BME280;50528;48.514;14.394;2023-02-28T01:20:56;94424.19;;;-3.30;69.13
64211;BME280;50528;48.514;14.394;2023-02-28T01:22:32;94422.42;;;-3.33;69.14
64211;BME280;50528;48.514;14.394;2023-02-28T01:24:02;94419.38;;;-3.32;69.12
64211;BME280;50528;48.514;14.394;2023-02-28T01:25:13;94414.16;;;-3.41;69.24
64211;BME280;50528;48.514;14.394;2023-02-28T01:25:48;94419.83;;;-3.36;69.24
64211;BME280;50528;48.514;14.394;2023-02-28T01:26:23;94419.49;;;-3.35;69.15
64211;BME280;50528;48.514;14.394;2023-02-28T01:26:57;94412.92;;;-3.36;69.07
64211;BME280;50528;48.514;14.394;2023-02-28T01:27:31;94420.61;;;-3.28;68.97
64211;BME280;50528;48.514;14.394;2023-02-28T01:28:05;94421.24;;;-3.30;68.97
64211;BME280;50528;48.514;14.394;2023-02-28T01:28:40;94422.60;;;-3.26;69.00
64211;BME280;50528;48.514;14.394;2023-02-28T01:29:15;94422.39;;;-3.25;68.98
64211;BME280;50528;48.514;14.394;2023-02-28T01:29:50;94418.42;;;-3.31;69.00
64211;BME280;50528;48.514;14.394;2023-02-28T01:30:24;94419.06;;;-3.30;69.14
64211;BME280;50528;48.514;14.394;2023-02-28T01:31:00;94415.09;;;-3.25;69.01
64211;BME280;50528;48.514;14.394;2023-02-28T01:31:35;94419.94;;;-3.28;69.03
64211;BME280;50528;48.514;14.394;2023-02-28T01:32:09;94423.98;;;-3.22;68.83
64211;BME280;50528;48.514;14.394;2023-02-28T01:32:43;94421.75;;;-3.21;68.81
64211;BME280;50528;48.514;14.394;2023-02-28T01:33:17;94421.25;;;-3.26;68.94
64211;BME280;50528;48.514;14.394;2023-02-28T01:33:52;94423.98;;;-3.30;68.99
64211;BME280;50528;48.514;14.394;2023-02-28T01:34:33;94415.02;;;-3.32;68.98
64211;BME280;50528;48.514;14.394;2023-02-28T01:35:11;94422.06;;;-3.27;69.15
64211;BME280;50528;48.514;14.394;2023-02-28T01:35:45;94422.74;;;-3.27;69.00
64211;BME280;50528;48.514;14.394;2023-02-28T01:36:23;94423.70;;;-3.30;68.99
64211;BME280;50528;48.514;14.394;2023-02-28T01:36:58;94422.13;;;-3.26;68.88
64211;BME280;50528;48.514;14.394;2023-02-28T01:37:32;94424.90;;;-3.20;68.97
64211;BME280;50528;48.514;14.394;2023-02-28T01:38:06;94423.71;;;-3.18;68.65
64211;BME280;50528;48.514;14.394;2023-02-28T01:38:54;94423.83;;;-3.30;68.89
64211;BME280;50528;48.514;14.394;2023-02-28T01:39:28;94421.17;;;-3.25;68.96
64211;BME280;50528;48.514;14.394;2023-02-28T01:40:03;94422.43;;;-3.24;68.88
64211;BME280;50528;48.514;14.394;2023-02-28T01:40:38;94421.64;;;-3.28;69.06
64211;BME280;50528;48.514;14.394;2023-02-28T01:41:22;94419.46;;;-3.29;69.05
64211;BME280;50528;48.514;14.394;2023-02-28T01:41:57;94419.57;;;-3.32;69.11
64211;BME280;50528;48.514;14.394;2023-02-28T01:42:32;94417.98;;;-3.33;69.10
64211;BME280;50528;48.514;14.394;2023-02-28T01:43:52;94414.59;;;-3.32;69.04
64211;BME280;50528;48.514;14.394;2023-02-28T01:44:55;94415.52;;;-3.36;69.24
64211;BME280;50528;48.514;14.394;2023-02-28T01:45:31;94415.48;;;-3.42;69.38
64211;BME280;50528;48.514;14.394;2023-02-28T01:46:05;94414.73;;;-3.40;69.36
64211;BME280;50528;48.514;14.394;2023-02-28T01:46:39;94410.78;;;-3.42;69.29
64211;BME280;50528;48.514;14.394;2023-02-28T01:47:14;94409.80;;;-3.40;69.29
64211;BME280;50528;48.514;14.394;2023-02-28T01:47:51;94411.00;;;-3.39;69.31
64211;BME280;50528;48.514;14.394;2023-02-28T01:48:28;94406.55;;;-3.36;69.30
64211;BME280;50528;48.514;14.394;2023-02-28T01:49:13;94410.38;;;-3.33;69.26
64211;BME280;50528;48.514;14.394;2023-02-28T01:49:50;94410.52;;;-3.36;69.23
64211;BME280;50528;48.514;14.394;2023-02-28T01:50:28;94405.21;;;-3.34;69.01
64211;BME280;50528;48.514;14.394;2023-02-28T01:51:08;94409.13;;;-3.36;69.14
64211;BME280;50528;48.514;14.394;2023-02-28T01:51:50;94407.45;;;-3.34;69.24
64211;BME280;50528;48.514;14.394;2023-02-28T01:52:28;94407.59;;;-3.37;69.07
64211;BME280;50528;48.514;14.394;2023-02-28T01:53:06;94407.91;;;-3.35;69.10
64211;BME280;50528;48.514;14.394;2023-02-28T01:53:50;94403.92;;;-3.36;69.12
64211;BME280;50528;48.514;14.394;2023-02-28T01:54:30;94400.59;;;-3.39;69.18
64211;BME280;50528;48.514;14.394;2023-02-28T01:55:07;94400.44;;;-3.41;69.21
64211;BME280;50528;48.514;14.394;2023-02-28T01:55:45;94397.73;;;-3.40;69.21
64211;BME280;50528;48.514;14.394;2023-02-28T01:56:24;94397.49;;;-3.44;69.37
64211;BME280;50528;48.514;14.394;2023-02-28T01:57:05;94399.13;;;-3.45;69.51
64211;BME280;50528;48.514;14.394;2023-02-28T01:57:45;94399.27;;;-3.43;69.23
64211;BME280;50528;48.514;14.394;2023-02-28T01:58:21;94397.96;;;-3.46;69.44
64211;BME280;50528;48.514;14.394;2023-02-28T01:58:55;94397.42;;;-3.42;69.37
64211;BME280;50528;48.514;14.394;2023-02-28T01:59:35;94399.67;;;-3.44;69.17
64211;BME280;50528;48.514;14.394;2023-02-28T02:00:17;94398.73;;;-3.45;69.29
64211;BME280;50528;48.514;14.394;2023-02-28T02:00:52;94397.45;;;-3.49;69.41
64211;BME280;50528;48.514;14.394;2023-02-28T02:01:27;94395.20;;;-3.44;69.25
64211;BME280;50528;48.514;14.394;2023-02-28T02:02:03;94395.16;;;-3.47;69.42
64211;BME280;50528;48.514;14.394;2023-02-28T02:02:43;94393.96;;;-3.52;69.47
64211;BME280;50528;48.514;14.394;2023-02-28T02:03:20;94393.54;;;-3.56;69.44
64211;BME280;50528;48.514;14.394;2023-02-28T02:03:57;94394.45;;;-3.57;69.48
64211;BME280;50528;48.514;14.394;2023-02-28T02:04:38;94393.40;;;-3.55;69.60
64211;BME280;50528;48.514;14.394;2023-02-28T02:05:19;94393.98;;;-3.50;69.39
64211;BME280;50528;48.514;14.394;2023-02-28T02:05:54;94396.48;;;-3.50;69.43
64211;BME280;50528;48.514;14.394;2023-02-28T02:06:34;94393.20;;;-3.51;69.44
64211;BME280;50528;48.514;14.394;2023-02-28T02:07:12;94397.38;;;-3.53;69.50
64211;BME280;50528;48.514;14.394;2023-02-28T02:07:55;94398.59;;;-3.55;69.72
64211;BME280;50528;48.514;14.394;2023-02-28T02:08:30;94395.55;;;-3.54;69.63
64211;BME280;50528;48.514;14.394;2023-02-28T02:09:04;94397.38;;;-3.50;69.44
64211;BME280;50528;48.514;14.394;2023-02-28T02:09:38;94397.16;;;-3.53;69.49
64211;BME280;50528;48.514;14.394;2023-02-28T02:10:16;94393.26;;;-3.52;69.47
64211;BME280;50528;48.514;14.394;2023-02-28T02:10:57;94393.33;;;-3.49;69.49
64211;BME280;50528;48.514;14.394;2023-02-28T02:11:34;94393.06;;;-3.48;69.34
64211;BME280;50528;48.514;14.394;2023-02-28T02:13:19;94391.41;;;-3.50;69.48
64211;BME280;50528;48.514;14.394;2023-02-28T02:14:12;94395.80;;;-3.55;69.55
64211;BME280;50528;48.514;14.394;2023-02-28T02:17:10;94393.23;;;-3.64;69.74
64211;BME280;50528;48.514;14.394;2023-02-28T02:17:50;94392.36;;;-3.69;69.76
64211;BME280;50528;48.514;14.394;2023-02-28T02:25:56;94392.23;;;-3.80;69.76
64211;BME280;50528;48.514;14.394;2023-02-28T02:27:50;94393.55;;;-3.83;69.64
64211;BME280;50528;48.514;14.394;2023-02-28T02:31:53;94390.44;;;-3.87;69.66
64211;BME280;50528;48.514;14.394;2023-02-28T02:33:02;94390.73;;;-3.89;69.77
64211;BME280;50528;48.514;14.394;2023-02-28T02:36:33;94390.14;;;-3.94;69.75
64211;BME280;50528;48.514;14.394;2023-02-28T02:38:29;94391.00;;;-3.96;69.64
64211;BME280;50528;48.514;14.394;2023-02-28T02:39:20;94391.77;;;-3.98;69.74
64211;BME280;50528;48.514;14.394;2023-02-28T02:40:16;94387.44;;;-4.00;69.64
64211;BME280;50528;48.514;14.394;2023-02-28T02:41:03;94389.21;;;-4.00;69.82
64211;BME280;50528;48.514;14.394;2023-02-28T02:41:51;94394.20;;;-4.02;69.67
64211;BME280;50528;48.514;14.394;2023-02-28T02:42:50;94388.15;;;-4.04;69.66
64211;BME280;50528;48.514;14.394;2023-02-28T02:44:02;94390.26;;;-4.04;69.81
64211;BME280;50528;48.514;14.394;2023-02-28T02:44:43;94390.36;;;-4.05;69.74
64211;BME280;50528;48.514;14.394;2023-02-28T02:45:31;94390.06;;;-4.04;69.71
64211;BME280;50528;48.514;14.394;2023-02-28T02:46:26;94391.31;;;-4.04;69.65
64211;BME280;50528;48.514;14.394;2023-02-28T02:47:09;94388.96;;;-4.05;69.63
64211;BME280;50528;48.514;14.394;2023-02-28T02:47:45;94389.29;;;-4.05;69.79
64211;BME280;50528;48.514;14.394;2023-02-28T02:48:21;94388.13;;;-4.03;69.81
64211;BME280;50528;48.514;14.394;2023-02-28T02:49:00;94388.40;;;-4.02;69.62
64211;BME280;50528;48.514;14.394;2023-02-28T02:50:44;94388.67;;;-4.02;69.42
64211;BME280;50528;48.514;14.394;2023-02-28T02:51:21;94388.19;;;-4.06;69.49
64211;BME280;50528;48.514;14.394;2023-02-28T02:52:03;94385.96;;;-4.06;69.53
64211;BME280;50528;48.514;14.394;2023-02-28T02:52:45;94387.42;;;-4.05;69.49
64211;BME280;50528;48.514;14.394;2023-02-28T02:53:27;94388.98;;;-4.05;69.62
64211;BME280;50528;48.514;14.394;2023-02-28T02:54:12;94391.20;;;-4.05;69.50
64211;BME280;50528;48.514;14.394;2023-02-28T02:54:54;94388.90;;;-4.04;69.64
64211;BME280;50528;48.514;14.394;2023-02-28T02:55:31;94386.98;;;-4.04;69.51
64211;BME280;50528;48.514;14.394;2023-02-28T02:56:08;94386.83;;;-4.04;69.56
64211;BME280;50528;48.514;14.394;2023-02-28T02:56:46;94386.31;;;-4.04;69.47
64211;BME280;50528;48.514;14.394;2023-02-28T02:57:24;94386.83;;;-4.04;69.40
64211;BME280;50528;48.514;14.394;2023-02-28T02:58:07;94386.02;;;-4.05;69.35
64211;BME280;50528;48.514;14.394;2023-02-28T02:58:41;94387.96;;;-4.05;69.35
64211;BME280;50528;48.514;14.394;2023-02-28T02:59:20;94384.57;;;-4.07;69.33
64211;BME280;50528;48.514;14.394;2023-02-28T02:59:56;94387.63;;;-4.07;69.45
64211;BME280;50528;48.514;14.394;2023-02-28T03:00:35;94386.23;;;-4.07;69.44
64211;BME280;50528;48.514;14.394;2023-02-28T03:01:16;94382.14;;;-4.09;69.47
64211;BME280;50528;48.514;14.394;2023-02-28T03:02:05;94386.75;;;-4.07;69.44
64211;BME280;50528;48.514;14.394;2023-02-28T03:02:42;94385.60;;;-4.07;69.40
64211;BME280;50528;48.514;14.394;2023-02-28T03:03:19;94389.60;;;-4.06;69.35
64211;BME280;50528;48.514;14.394;2023-02-28T03:04:11;94389.16;;;-4.09;69.29
64211;BME280;50528;48.514;14.394;2023-02-28T03:04:51;94390.45;;;-4.08;69.30
64211;BME280;50528;48.514;14.394;2023-02-28T03:05:33;94389.19;;;-4.09;69.33
64211;BME280;50528;48.514;14.394;2023-02-28T03:06:08;94389.02;;;-4.09;69.41
64211;BME280;50528;48.514;14.394;2023-02-28T03:06:41;94389.62;;;-4.10;69.29
64211;BME280;50528;48.514;14.394;2023-02-28T03:07:16;94389.33;;;-4.09;69.29
64211;BME280;50528;48.514;14.394;2023-02-28T03:07:49;94390.62;;;-4.08;69.21
64211;BME280;50528;48.514;14.394;2023-02-28T03:08:25;94387.93;;;-4.03;69.29
64211;BME280;50528;48.514;14.394;2023-02-28T03:09:01;94370.69;;;-4.07;69.13
64211;BME280;50528;48.514;14.394;2023-02-28T03:09:36;94386.98;;;-4.02;68.99
64211;BME280;50528;48.514;14.394;2023-02-28T03:11:12;94384.86;;;-4.10;69.17
64211;BME280;50528;48.514;14.394;2023-02-28T03:11:51;94385.02;;;-4.14;69.29
64211;BME280;50528;48.514;14.394;2023-02-28T03:12:44;94383.98;;;-4.16;69.32
64211;BME280;50528;48.514;14.394;2023-02-28T03:16:32;94383.10;;;-4.29;69.21
64211;BME280;50528;48.514;14.394;2023-02-28T03:21:47;94377.10;;;-4.46;69.35
64211;BME280;50528;48.514;14.394;2023-02-28T03:23:29;94383.29;;;-4.44;69.09
64211;BME280;50528;48.514;14.394;2023-02-28T03:24:13;94388.15;;;-4.48;69.21
64211;BME280;50528;48.514;14.394;2023-02-28T03:25:33;94383.20;;;-4.54;69.34
64211;BME280;50528;48.514;14.394;2023-02-28T03:26:20;94383.61;;;-4.59;69.28
64211;BME280;50528;48.514;14.394;2023-02-28T03:27:02;94385.93;;;-4.60;69.47
64211;BME280;50528;48.514;14.394;2023-02-28T03:28:01;94384.77;;;-4.60;69.43
64211;BME280;50528;48.514;14.394;2023-02-28T03:28:45;94384.83;;;-4.61;69.51
64211;BME280;50528;48.514;14.394;2023-02-28T03:29:50;94387.17;;;-4.60;69.56
64211;BME280;50528;48.514;14.394;2023-02-28T03:30:38;94387.98;;;-4.60;69.62
64211;BME280;50528;48.514;14.394;2023-02-28T03:31:31;94384.17;;;-4.58;69.65
64211;BME280;50528;48.514;14.394;2023-02-28T03:32:36;94384.45;;;-4.57;69.55
64211;BME280;50528;48.514;14.394;2023-02-28T03:33:26;94375.59;;;-4.63;69.50
64211;BME280;50528;48.514;14.394;2023-02-28T03:34:16;94380.65;;;-4.57;69.46
64211;BME280;50528;48.514;14.394;2023-02-28T03:35:05;94379.91;;;-4.60;69.42
64211;BME280;50528;48.514;14.394;2023-02-28T03:35:47;94380.89;;;-4.61;69.40
64211;BME280;50528;48.514;14.394;2023-02-28T03:36:30;94381.64;;;-4.62;69.57
64211;BME280;50528;48.514;14.394;2023-02-28T03:37:13;94382.13;;;-4.61;69.43
64211;BME280;50528;48.514;14.394;2023-02-28T03:37:53;94382.98;;;-4.63;69.44
64211;BME280;50528;48.514;14.394;2023-02-28T03:39:08;94379.83;;;-4.64;69.52
64211;BME280;50528;48.514;14.394;2023-02-28T03:39:49;94381.61;;;-4.65;69.56
64211;BME280;50528;48.514;14.394;2023-02-28T03:40:28;94381.88;;;-4.68;69.40
64211;BME280;50528;48.514;14.394;2023-02-28T03:41:46;94381.95;;;-4.69;69.45
64211;BME280;50528;48.514;14.394;2023-02-28T03:42:28;94380.04;;;-4.68;69.49
64211;BME280;50528;48.514;14.394;2023-02-28T03:43:08;94379.02;;;-4.68;69.61
64211;BME280;50528;48.514;14.394;2023-02-28T03:44:11;94377.89;;;-4.67;69.54
64211;BME280;50528;48.514;14.394;2023-02-28T03:45:02;94377.96;;;-4.68;69.48
64211;BME280;50528;48.514;14.394;2023-02-28T03:45:38;94375.08;;;-4.70;69.50
64211;BME280;50528;48.514;14.394;2023-02-28T03:46:18;94373.11;;;-4.71;69.39
64211;BME280;50528;48.514;14.394;2023-02-28T03:47:02;94381.02;;;-4.67;69.46
64211;BME280;50528;48.514;14.394;2023-02-28T03:48:42;94375.50;;;-4.69;69.49
64211;BME280;50528;48.514;14.394;2023-02-28T03:49:29;94376.77;;;-4.70;69.41
64211;BME280;50528;48.514;14.394;2023-02-28T03:50:08;94377.58;;;-4.69;69.42
64211;BME280;50528;48.514;14.394;2023-02-28T03:50:47;94376.64;;;-4.70;69.39
64211;BME280;50528;48.514;14.394;2023-02-28T03:51:23;94377.26;;;-4.70;69.36
64211;BME280;50528;48.514;14.394;2023-02-28T03:52:03;94375.94;;;-4.70;69.48
64211;BME280;50528;48.514;14.394;2023-02-28T03:52:44;94378.85;;;-4.68;69.55
64211;BME280;50528;48.514;14.394;2023-02-28T03:53:39;94375.23;;;-4.68;69.40
64211;BME280;50528;48.514;14.394;2023-02-28T03:54:19;94374.67;;;-4.69;69.48
64211;BME280;50528;48.514;14.394;2023-02-28T03:55:00;94373.94;;;-4.69;69.33
64211;BME280;50528;48.514;14.394;2023-02-28T03:55:45;94374.45;;;-4.69;69.52
64211;BME280;50528;48.514;14.394;2023-02-28T03:56:38;94371.60;;;-4.69;69.47
64211;BME280;50528;48.514;14.394;2023-02-28T03:58:37;94376.89;;;-4.71;69.44
64211;BME280;50528;48.514;14.394;2023-02-28T03:59:39;94377.96;;;-4.71;69.38
64211;BME280;50528;48.514;14.394;2023-02-28T04:00:21;94376.73;;;-4.73;69.32
64211;BME280;50528;48.514;14.394;2023-02-28T04:01:09;94377.94;;;-4.73;69.47
64211;BME280;50528;48.514;14.394;2023-02-28T04:01:47;94379.11;;;-4.75;69.40
64211;BME280;50528;48.514;14.394;2023-02-28T04:02:22;94379.55;;;-4.74;69.47
64211;BME280;50528;48.514;14.394;2023-02-28T04:02:57;94377.93;;;-4.75;69.33
64211;BME280;50528;48.514;14.394;2023-02-28T04:03:32;94373.39;;;-4.77;69.47
64211;BME280;50528;48.514;14.394;2023-02-28T04:04:05;94378.10;;;-4.73;69.58
64211;BME280;50528;48.514;14.394;2023-02-28T04:04:40;94379.39;;;-4.72;69.47
64211;BME280;50528;48.514;14.394;2023-02-28T04:05:19;94378.88;;;-4.74;69.38
64211;BME280;50528;48.514;14.394;2023-02-28T04:05:55;94377.58;;;-4.75;69.45
64211;BME280;50528;48.514;14.394;2023-02-28T04:06:32;94375.52;;;-4.75;69.32